Terminal Aerodrome Forecast
Issued by NWS

Home | Current Version | Previous Version | Graphics & Text | Print | Product List | Glossary On
Versions: 1 2 3 4 5 6 7 8 9 10 11 12 13 14 15 16 17
855
FTUS43 KTOP 141720
TAFMHK
TAF
KMHK 141720Z 1418/1518 21010KT 5SM -TSRA BR BKN050CB
     FM141930 22010KT P6SM VCSH SCT050 BKN080
     FM142200 25009KT P6SM VCTS SCT025 OVC040CB
      TEMPO 1422/1424 3SM -TSRA BKN025CB
     FM150000 31015G20KT P6SM VCSH BKN025
     FM150300 32017G23KT P6SM BKN050
     FM151000 32008KT P6SM FEW250=

USA.gov is the U.S. government's official web portal to all federal, state and local government web resources and services.